Time;durP1;ratioP1;P1;durP2;ratioP2;P2;SDS_P1;SDS_P2;PMS_P1;PMS_P2;Temp;Humidity;BMP_temperature;BMP_pressure;BME280_temperature;BME280_humidity;BME280_pressure;Samples;Min_cycle;Max_cycle;Signal;HPM_P1;HPM_P2
2022/05/19 00:02:02;;;;;;;22.20;13.47;;;17.40;99.90;;;;;;5052457;28;20049;-64
2022/05/19 00:04:28;;;;;;;17.80;12.38;;;17.30;99.90;;;;;;5052688;28;20032;-64
2022/05/19 00:06:54;;;;;;;16.73;11.93;;;17.30;99.90;;;;;;5070914;28;20066;-65
2022/05/19 00:09:20;;;;;;;21.75;12.43;;;17.30;99.90;;;;;;5052772;28;20044;-65
2022/05/19 00:11:46;;;;;;;18.25;13.15;;;17.30;99.90;;;;;;5052362;28;20499;-64
2022/05/19 00:14:13;;;;;;;15.40;12.30;;;17.30;99.90;;;;;;5052507;28;20051;-64
2022/05/19 00:16:39;;;;;;;14.45;12.07;;;17.20;99.90;;;;;;5070648;28;20049;-65
2022/05/19 00:19:05;;;;;;;16.70;12.25;;;17.20;99.90;;;;;;5051952;28;20056;-64
2022/05/19 00:21:31;;;;;;;17.58;12.02;;;17.20;99.90;;;;;;5070585;28;20040;-64
2022/05/19 00:23:57;;;;;;;19.40;12.52;;;17.20;99.90;;;;;;5052128;28;20044;-64
2022/05/19 00:26:23;;;;;;;19.55;13.45;;;17.20;99.90;;;;;;5070451;28;20035;-63
2022/05/19 00:28:49;;;;;;;18.00;13.02;;;17.10;99.90;;;;;;5052426;28;20037;-64
2022/05/19 00:31:15;;;;;;;17.13;12.98;;;17.10;99.90;;;;;;5070350;28;20036;-64
2022/05/19 00:33:41;;;;;;;17.10;13.18;;;17.10;99.90;;;;;;5052399;28;20139;-64
2022/05/19 00:36:12;;;;;;;18.67;12.93;;;17.00;99.90;;;;;;5070193;28;20049;-64
2022/05/19 00:38:38;;;;;;;17.27;12.90;;;16.90;99.90;;;;;;5052346;28;20049;-64
2022/05/19 00:41:05;;;;;;;20.67;13.38;;;16.90;99.90;;;;;;5052293;28;20110;-65
2022/05/19 00:43:35;;;;;;;21.55;13.82;;;16.90;99.90;;;;;;5070315;28;20093;-64
2022/05/19 00:46:19;;;;;;;16.30;13.05;;;16.90;99.90;;;;;;5052207;28;20045;-64
2022/05/19 00:48:53;;;;;;;16.02;12.48;;;16.80;99.90;;;;;;5070300;28;20044;-64
2022/05/19 00:51:24;;;;;;;20.80;13.75;;;16.80;99.90;;;;;;5052424;28;20509;-65
2022/05/19 00:53:54;;;;;;;16.83;12.75;;;16.70;99.90;;;;;;5052261;28;20047;-64
2022/05/19 00:56:30;;;;;;;17.73;13.48;;;16.70;99.90;;;;;;5052232;28;20045;-64
2022/05/19 00:59:03;;;;;;;16.77;13.18;;;16.70;99.90;;;;;;5052183;28;20071;-65
2022/05/19 01:01:29;;;;;;;20.13;13.43;;;16.70;99.90;;;;;;5052237;28;20448;-64
2022/05/19 01:04:00;;;;;;;17.73;12.38;;;16.70;99.90;;;;;;5052425;28;20391;-64
2022/05/19 01:06:28;;;;;;;16.63;12.70;;;16.70;99.90;;;;;;5070077;28;20041;-64
2022/05/19 01:09:03;;;;;;;18.92;13.07;;;16.70;99.90;;;;;;5071570;28;20078;-64
2022/05/19 01:11:30;;;;;;;20.13;13.80;;;16.70;99.90;;;;;;5055942;28;20131;-65
2022/05/19 01:13:56;;;;;;;17.75;13.25;;;16.60;99.90;;;;;;5073822;28;20046;-65
2022/05/19 01:16:22;;;;;;;20.83;14.65;;;16.60;99.90;;;;;;5055432;28;20148;-64
2022/05/19 01:18:48;;;;;;;17.73;13.80;;;16.60;99.90;;;;;;5073754;28;20047;-64
2022/05/19 01:21:18;;;;;;;19.38;13.50;;;16.60;99.90;;;;;;5055330;28;20491;-65
2022/05/19 01:24:29;;;;;;;18.10;13.85;;;16.60;99.90;;;;;;5055738;28;20105;-65
2022/05/19 01:26:57;;;;;;;18.92;13.55;;;16.60;99.90;;;;;;4956557;28;20050;-64
2022/05/19 01:29:27;;;;;;;17.23;14.02;;;16.60;99.90;;;;;;4972436;28;20030;-65
2022/05/19 01:31:56;;;;;;;19.67;13.65;;;16.60;99.90;;;;;;4956360;28;20050;-65
2022/05/19 01:34:25;;;;;;;19.35;14.43;;;16.60;99.90;;;;;;4972259;28;20054;-65
2022/05/19 01:36:51;;;;;;;22.27;14.55;;;16.60;99.90;;;;;;4953186;29;20218;-64
2022/05/19 01:39:29;;;;;;;18.80;14.73;;;16.50;99.90;;;;;;4969126;28;20047;-64
2022/05/19 01:42:29;;;;;;;18.58;14.30;;;16.50;99.90;;;;;;4972414;28;20053;-65
2022/05/19 01:45:03;;;;;;;20.23;14.60;;;16.50;99.90;;;;;;4956100;28;20050;-64
2022/05/19 01:47:51;;;;;;;19.83;13.57;;;16.40;99.90;;;;;;4956138;28;20074;-64
2022/05/19 01:50:44;;;;;;;20.95;15.20;;;16.40;99.90;;;;;;4955805;28;20101;-63
2022/05/19 01:53:14;;;;;;;21.30;15.55;;;16.40;99.90;;;;;;4917621;29;20048;-64
2022/05/19 01:55:48;;;;;;;22.83;15.88;;;16.40;99.90;;;;;;4917485;29;20051;-65
2022/05/19 01:58:29;;;;;;;18.95;14.85;;;16.40;99.90;;;;;;4977635;28;20054;-64
2022/05/19 02:00:58;;;;;;;20.88;16.08;;;16.40;99.90;;;;;;4994655;28;20092;-64
2022/05/19 02:03:48;;;;;;;24.42;17.52;;;16.40;99.90;;;;;;4993886;28;20443;-64
2022/05/19 02:06:31;;;;;;;22.70;16.17;;;16.40;99.90;;;;;;4994404;28;20041;-65
2022/05/19 02:09:04;;;;;;;21.67;16.02;;;16.40;99.90;;;;;;5010939;28;20107;-64
2022/05/19 02:11:56;;;;;;;22.20;16.10;;;16.30;99.90;;;;;;4994258;28;20050;-63
2022/05/19 02:14:35;;;;;;;23.33;17.55;;;16.30;99.90;;;;;;4993944;28;20049;-65
2022/05/19 02:17:04;;;;;;;22.33;16.00;;;16.30;99.90;;;;;;4994697;28;20041;-63
2022/05/19 02:19:35;;;;;;;21.80;15.85;;;16.30;99.90;;;;;;5000875;28;20144;-64
2022/05/19 02:22:05;;;;;;;26.60;17.92;;;16.30;99.90;;;;;;5030430;28;20124;-65
2022/05/19 02:24:37;;;;;;;21.52;16.48;;;16.30;99.90;;;;;;5030240;28;20095;-64
2022/05/19 02:28:07;;;;;;;22.90;17.95;;;16.30;99.90;;;;;;5014228;28;20468;-63
2022/05/19 02:30:36;;;;;;;23.23;17.02;;;16.30;99.90;;;;;;4955115;28;20057;-65
2022/05/19 02:33:01;;;;;;;23.00;17.02;;;16.30;99.90;;;;;;4971582;28;20047;-64
2022/05/19 02:35:28;;;;;;;23.48;18.73;;;16.30;99.90;;;;;;4971049;28;20058;-65
2022/05/19 02:37:55;;;;;;;22.23;18.35;;;16.20;99.90;;;;;;4971214;28;20070;-64
2022/05/19 02:40:23;;;;;;;25.60;18.73;;;16.20;99.90;;;;;;4971433;28;20417;-64
2022/05/19 02:42:49;;;;;;;30.92;19.80;;;16.30;99.90;;;;;;4970863;28;20437;-63
2022/05/19 02:45:16;;;;;;;25.98;19.35;;;16.20;99.90;;;;;;4971202;28;20051;-64
2022/05/19 02:47:43;;;;;;;28.88;20.10;;;16.20;99.90;;;;;;4970721;28;20062;-63
2022/05/19 02:50:10;;;;;;;27.10;20.45;;;16.20;99.90;;;;;;4971156;28;20138;-64
2022/05/19 02:52:36;;;;;;;26.20;20.88;;;16.20;99.90;;;;;;4970649;28;20061;-63
2022/05/19 02:55:01;;;;;;;25.30;20.65;;;16.20;99.90;;;;;;4971148;28;20055;-64
2022/05/19 02:57:27;;;;;;;26.52;20.98;;;16.20;99.90;;;;;;4970673;28;20148;-64
2022/05/19 02:59:53;;;;;;;29.20;21.02;;;16.20;99.90;;;;;;4954741;28;20137;-64
2022/05/19 03:02:18;;;;;;;24.17;20.48;;;16.20;99.90;;;;;;4971150;28;20085;-64
2022/05/19 03:04:44;;;;;;;29.65;21.90;;;16.20;99.90;;;;;;4973897;28;20054;-65
2022/05/19 03:07:10;;;;;;;26.52;21.60;;;16.10;99.90;;;;;;5050559;28;20058;-64
2022/05/19 03:09:36;;;;;;;26.73;21.02;;;16.10;99.90;;;;;;5073951;28;20087;-63
2022/05/19 03:12:02;;;;;;;28.02;20.85;;;16.10;99.90;;;;;;5091888;28;20040;-64
2022/05/19 03:14:30;;;;;;;23.83;20.77;;;16.10;99.90;;;;;;5056326;28;20055;-64
2022/05/19 03:16:56;;;;;;;27.65;21.20;;;16.10;99.90;;;;;;5073261;28;20052;-65
2022/05/19 03:19:21;;;;;;;28.40;21.73;;;16.10;99.90;;;;;;5066644;28;20053;-63
2022/05/19 03:21:47;;;;;;;27.08;21.25;;;16.10;99.90;;;;;;5071337;28;20110;-64
2022/05/19 03:24:12;;;;;;;28.13;21.25;;;16.10;99.90;;;;;;5053394;28;20127;-64
2022/05/19 03:26:38;;;;;;;26.10;21.25;;;16.10;99.90;;;;;;5053118;28;20123;-64
2022/05/19 03:29:04;;;;;;;28.38;21.63;;;16.10;99.90;;;;;;5071451;28;20435;-65
2022/05/19 03:31:30;;;;;;;29.63;22.10;;;16.10;99.90;;;;;;5070373;28;20036;-63
2022/05/19 03:33:56;;;;;;;29.08;21.80;;;16.10;99.90;;;;;;5070799;28;20050;-63
2022/05/19 03:36:22;;;;;;;26.92;21.45;;;16.10;99.90;;;;;;5053483;28;20040;-64
2022/05/19 03:38:48;;;;;;;30.13;22.15;;;16.10;99.90;;;;;;5070884;28;20040;-64
2022/05/19 03:41:13;;;;;;;28.75;23.25;;;16.10;99.90;;;;;;5053384;28;20395;-63
2022/05/19 03:43:39;;;;;;;29.88;22.45;;;16.10;99.90;;;;;;5053045;28;20048;-64
2022/05/19 03:46:05;;;;;;;31.05;23.17;;;16.10;99.90;;;;;;5070877;28;20040;-63
2022/05/19 03:48:32;;;;;;;29.08;22.35;;;16.00;99.90;;;;;;5052979;28;20089;-64
2022/05/19 03:50:58;;;;;;;28.73;23.08;;;16.00;99.90;;;;;;5070879;28;20101;-65
2022/05/19 03:53:24;;;;;;;28.88;23.15;;;16.00;99.90;;;;;;5053108;28;20036;-64
2022/05/19 03:55:49;;;;;;;27.27;22.33;;;16.00;99.90;;;;;;5070573;28;20048;-64
2022/05/19 03:58:15;;;;;;;26.85;22.95;;;16.00;99.90;;;;;;5052876;28;20073;-65
2022/05/19 04:00:41;;;;;;;35.38;23.90;;;16.00;99.90;;;;;;5053197;28;20125;-65
2022/05/19 04:03:06;;;;;;;30.30;24.75;;;16.00;99.90;;;;;;5052866;28;20036;-64
2022/05/19 04:05:32;;;;;;;31.73;24.20;;;16.00;99.90;;;;;;5070947;28;20032;-64
2022/05/19 04:07:58;;;;;;;29.77;24.23;;;16.00;99.90;;;;;;5052532;28;20055;-64
2022/05/19 04:10:23;;;;;;;29.75;24.50;;;16.10;99.90;;;;;;5070709;28;20043;-63
2022/05/19 04:12:49;;;;;;;32.47;24.15;;;16.10;99.90;;;;;;5052428;28;20048;-63
2022/05/19 04:15:15;;;;;;;33.28;25.05;;;16.10;99.90;;;;;;5070616;28;20044;-64
2022/05/19 04:17:40;;;;;;;32.20;24.98;;;16.10;99.90;;;;;;5052699;28;20051;-64
2022/05/19 04:20:09;;;;;;;32.10;25.27;;;16.20;99.90;;;;;;5052345;28;20537;-64
2022/05/19 04:22:35;;;;;;;35.83;26.48;;;16.20;99.90;;;;;;5070524;28;20468;-65
2022/05/19 04:25:03;;;;;;;34.17;26.38;;;16.30;99.90;;;;;;5070671;28;20086;-64
2022/05/19 04:27:30;;;;;;;30.75;25.55;;;16.40;99.90;;;;;;5052685;28;20538;-64
2022/05/19 04:29:56;;;;;;;30.25;24.27;;;16.30;99.90;;;;;;5052141;28;20044;-65
2022/05/19 04:32:21;;;;;;;32.83;25.58;;;16.30;99.90;;;;;;5052458;28;20048;-64
2022/05/19 04:34:47;;;;;;;35.13;25.85;;;16.40;99.90;;;;;;5070430;28;20458;-64
2022/05/19 04:37:13;;;;;;;32.13;26.73;;;16.40;99.90;;;;;;5052439;28;20135;-64
2022/05/19 04:39:39;;;;;;;34.70;26.00;;;16.50;99.90;;;;;;5070640;28;20048;-63
2022/05/19 04:42:09;;;;;;;33.08;26.90;;;16.50;99.90;;;;;;5070106;28;20032;-64
2022/05/19 04:44:35;;;;;;;33.22;24.95;;;16.50;99.90;;;;;;5056664;28;20495;-64
2022/05/19 04:47:01;;;;;;;31.85;24.15;;;16.60;99.90;;;;;;5056323;28;20043;-64
2022/05/19 04:49:27;;;;;;;32.53;25.65;;;16.70;99.90;;;;;;5056548;28;20048;-64
2022/05/19 04:51:53;;;;;;;34.28;25.77;;;16.70;99.90;;;;;;5056149;28;20044;-64
2022/05/19 04:54:18;;;;;;;30.42;23.58;;;16.80;99.90;;;;;;5056008;28;20090;-65
2022/05/19 04:56:44;;;;;;;28.30;23.83;;;16.90;99.90;;;;;;5056238;28;20041;-64
2022/05/19 04:59:15;;;;;;;28.55;23.75;;;16.90;99.90;;;;;;5073952;28;20098;-64
2022/05/19 05:01:46;;;;;;;30.30;23.73;;;17.00;99.90;;;;;;5056706;28;20044;-63
2022/05/19 05:04:13;;;;;;;32.83;24.45;;;17.10;99.90;;;;;;5056020;28;20279;-65
2022/05/19 05:06:38;;;;;;;32.78;25.20;;;17.20;99.90;;;;;;5074182;28;20384;-65
2022/05/19 05:09:05;;;;;;;29.05;25.17;;;17.20;99.90;;;;;;5073728;28;20048;-64
2022/05/19 05:11:31;;;;;;;27.25;23.30;;;17.30;99.90;;;;;;5056371;28;20072;-63
2022/05/19 05:13:56;;;;;;;27.38;23.95;;;17.40;99.90;;;;;;5073767;28;20049;-64
2022/05/19 05:16:23;;;;;;;30.40;24.33;;;17.50;99.90;;;;;;5073775;28;20139;-64
2022/05/19 05:18:48;;;;;;;27.42;23.48;;;17.60;99.90;;;;;;5055487;28;20086;-65
2022/05/19 05:21:15;;;;;;;27.45;23.80;;;17.70;99.90;;;;;;5055687;28;20059;-64
2022/05/19 05:23:41;;;;;;;30.55;23.40;;;17.70;99.90;;;;;;5056017;28;20040;-63
2022/05/19 05:26:07;;;;;;;28.13;23.27;;;17.80;99.90;;;;;;5055507;28;20552;-65
2022/05/19 05:28:34;;;;;;;25.98;22.08;;;17.90;99.90;;;;;;5055575;28;20110;-65
2022/05/19 05:31:00;;;;;;;27.58;21.65;;;18.00;99.90;;;;;;5073755;28;20044;-64
2022/05/19 05:33:26;;;;;;;24.83;19.75;;;18.10;99.90;;;;;;5055262;28;20510;-64
2022/05/19 05:35:52;;;;;;;24.65;20.77;;;18.20;99.90;;;;;;5055555;28;20090;-64
2022/05/19 05:38:18;;;;;;;21.75;18.10;;;18.30;99.90;;;;;;5073141;28;20045;-64
2022/05/19 05:40:45;;;;;;;24.83;18.48;;;18.40;99.90;;;;;;5055722;28;20080;-65
2022/05/19 05:43:16;;;;;;;19.48;15.45;;;18.50;99.90;;;;;;5038209;28;20059;-64
2022/05/19 05:45:42;;;;;;;18.20;13.55;;;18.50;99.90;;;;;;5073482;28;20553;-64
2022/05/19 05:48:08;;;;;;;16.10;13.90;;;18.50;99.90;;;;;;5055485;28;20048;-64
2022/05/19 05:50:34;;;;;;;17.38;13.52;;;18.60;99.90;;;;;;5055267;28;20041;-65
2022/05/19 05:52:59;;;;;;;15.50;12.85;;;18.60;99.90;;;;;;5055444;28;20115;-65
2022/05/19 05:55:25;;;;;;;13.30;11.10;;;18.70;99.90;;;;;;5054161;28;20566;-65
2022/05/19 05:57:51;;;;;;;13.10;10.90;;;18.80;99.90;;;;;;5054876;28;20047;-65
2022/05/19 06:00:17;;;;;;;10.48;7.82;;;18.90;99.90;;;;;;5054948;28;20048;-65
2022/05/19 06:02:43;;;;;;;6.13;4.07;;;18.90;99.90;;;;;;5073351;28;20096;-65
2022/05/19 06:05:10;;;;;;;5.68;3.70;;;18.90;99.90;;;;;;5054558;28;20166;-63
2022/05/19 06:07:35;;;;;;;3.72;3.10;;;18.90;99.90;;;;;;5072732;28;20132;-65
2022/05/19 06:10:01;;;;;;;6.13;2.65;;;19.00;99.90;;;;;;5054936;28;20181;-64
2022/05/19 06:12:27;;;;;;;7.57;3.05;;;19.00;99.90;;;;;;5054408;28;20044;-64
2022/05/19 06:14:53;;;;;;;7.07;2.63;;;19.00;99.90;;;;;;5072954;28;20040;-64
2022/05/19 06:17:19;;;;;;;4.65;2.75;;;19.00;99.90;;;;;;5054226;28;20127;-65
2022/05/19 06:19:45;;;;;;;4.10;2.75;;;19.10;99.90;;;;;;5054594;28;20048;-64
2022/05/19 06:22:11;;;;;;;5.72;2.78;;;19.30;99.90;;;;;;5054599;28;20384;-65
2022/05/19 06:24:36;;;;;;;4.03;2.75;;;19.30;99.90;;;;;;5054612;28;20090;-65
2022/05/19 06:27:02;;;;;;;4.28;2.60;;;19.60;99.90;;;;;;5072556;28;20036;-64
2022/05/19 06:29:28;;;;;;;2.85;2.35;;;19.60;99.90;;;;;;5053827;28;20078;-64
2022/05/19 06:31:54;;;;;;;3.20;2.35;;;19.70;99.90;;;;;;5054390;28;20052;-64
2022/05/19 06:34:19;;;;;;;3.40;2.38;;;19.70;99.90;;;;;;5072407;28;20040;-63
2022/05/19 06:36:45;;;;;;;5.13;2.45;;;19.70;99.90;;;;;;5052516;28;20491;-64
2022/05/19 06:39:11;;;;;;;3.17;2.65;;;19.70;99.90;;;;;;5052273;28;20041;-64
2022/05/19 06:44:20;;;;;;;3.50;2.40;;;19.40;99.90;;;;;;5052284;28;20036;-66
2022/05/19 06:46:47;;;;;;;3.80;2.63;;;19.40;99.90;;;;;;5034140;28;20033;-63
2022/05/19 06:49:13;;;;;;;5.90;2.60;;;19.20;99.90;;;;;;5034416;28;20033;-65
2022/05/19 06:51:38;;;;;;;6.68;2.72;;;19.10;99.90;;;;;;5033922;28;20044;-65
2022/05/19 06:54:04;;;;;;;5.13;3.20;;;19.10;99.90;;;;;;5034125;28;20045;-64
2022/05/19 06:56:30;;;;;;;6.35;2.35;;;19.00;99.90;;;;;;5052012;28;20116;-65
2022/05/19 06:58:56;;;;;;;4.43;2.97;;;18.90;99.90;;;;;;5033906;28;20455;-65
2022/05/19 07:01:22;;;;;;;4.78;2.95;;;18.90;99.90;;;;;;5034214;28;20440;-65
2022/05/19 07:03:48;;;;;;;7.05;3.00;;;18.90;99.90;;;;;;5033847;28;20755;-64
2022/05/19 07:06:13;;;;;;;4.68;3.10;;;18.90;99.90;;;;;;5051710;28;20476;-64
2022/05/19 07:08:40;;;;;;;5.22;2.90;;;18.90;99.90;;;;;;5033475;28;20049;-65
2022/05/19 07:11:06;;;;;;;5.05;3.25;;;18.90;99.90;;;;;;5033766;28;20086;-64
2022/05/19 07:13:32;;;;;;;4.95;3.00;;;18.80;99.90;;;;;;5017309;28;20131;-65
2022/05/19 07:15:59;;;;;;;5.85;3.28;;;18.80;99.90;;;;;;5017296;28;20124;-64
2022/05/19 07:18:25;;;;;;;4.90;2.95;;;18.70;99.90;;;;;;5033619;28;20112;-65
2022/05/19 07:20:52;;;;;;;9.57;3.40;;;18.70;99.90;;;;;;5051345;28;20551;-64
2022/05/19 07:23:24;;;;;;;7.55;3.47;;;18.70;99.90;;;;;;5033661;28;20025;-65
2022/05/19 07:25:50;;;;;;;6.30;2.90;;;18.60;99.90;;;;;;5033726;28;20048;-65
2022/05/19 07:28:18;;;;;;;5.05;2.97;;;18.50;99.90;;;;;;5051526;28;20124;-65
2022/05/19 07:30:46;;;;;;;5.82;3.00;;;18.50;99.90;;;;;;5032835;28;20052;-65
2022/05/19 07:33:12;;;;;;;5.55;3.22;;;18.60;99.90;;;;;;5033756;28;20115;-64
2022/05/19 07:35:39;;;;;;;5.70;3.10;;;18.60;99.90;;;;;;5050996;28;20088;-65
2022/05/19 07:38:05;;;;;;;5.82;2.85;;;18.70;99.90;;;;;;5033140;28;20112;-64
2022/05/19 07:40:31;;;;;;;5.93;3.00;;;18.70;99.90;;;;;;5033076;28;20116;-65
2022/05/19 07:43:35;;;;;;;5.05;3.03;;;18.80;99.90;;;;;;5032917;28;20059;-65
2022/05/19 07:45:45;;;;;;;8.60;4.28;;;18.80;99.90;;;;;;5050786;28;20048;-64
2022/05/19 07:48:11;;;;;;;7.43;4.28;;;18.90;99.90;;;;;;5033175;28;20041;-65
2022/05/19 07:50:36;;;;;;;8.80;5.68;;;18.90;99.90;;;;;;5033323;28;20052;-65
2022/05/19 07:53:02;;;;;;;9.48;5.93;;;18.90;99.90;;;;;;5050706;28;20123;-65
2022/05/19 07:55:28;;;;;;;6.65;5.05;;;18.90;99.90;;;;;;5050821;28;20045;-64
2022/05/19 07:57:53;;;;;;;9.50;5.93;;;18.90;99.90;;;;;;5050623;28;20037;-65
2022/05/19 08:00:19;;;;;;;8.43;6.10;;;18.90;99.90;;;;;;5032894;28;20045;-65
2022/05/19 08:02:46;;;;;;;9.30;6.72;;;18.90;99.90;;;;;;5032572;28;20076;-65
2022/05/19 08:05:12;;;;;;;12.65;7.60;;;18.90;99.90;;;;;;5033186;28;20468;-64
2022/05/19 08:07:37;;;;;;;9.30;6.55;;;18.90;99.90;;;;;;5050663;28;20072;-64
2022/05/19 08:10:23;;;;;;;11.70;7.15;;;19.00;99.90;;;;;;5032567;28;20053;-66
2022/05/19 08:15:37;;;;;;;13.50;8.35;;;19.10;99.90;;;;;;5050623;28;20056;-65
2022/05/19 08:18:07;;;;;;;13.90;8.27;;;19.20;99.90;;;;;;5015303;28;20053;-64
2022/05/19 08:20:35;;;;;;;9.52;7.80;;;19.20;99.90;;;;;;5048781;28;20107;-65
2022/05/19 08:23:01;;;;;;;10.02;8.70;;;19.30;99.90;;;;;;5070399;28;20076;-65
2022/05/19 08:25:27;;;;;;;10.57;8.50;;;19.30;99.90;;;;;;5070556;28;20037;-65
2022/05/19 08:27:55;;;;;;;10.52;8.35;;;19.40;99.90;;;;;;5070364;28;20036;-65
2022/05/19 08:30:22;;;;;;;11.15;8.52;;;19.50;99.90;;;;;;5070543;28;20048;-64
2022/05/19 08:32:48;;;;;;;11.90;8.93;;;19.60;99.90;;;;;;5070575;28;20032;-65
2022/05/19 08:35:14;;;;;;;12.73;9.00;;;19.70;99.90;;;;;;5052215;28;20431;-65
2022/05/19 08:37:39;;;;;;;13.32;8.60;;;19.90;99.90;;;;;;5052402;28;20064;-64
2022/05/19 08:40:06;;;;;;;14.35;8.82;;;19.90;99.90;;;;;;5052085;28;20051;-64
2022/05/19 08:42:36;;;;;;;10.93;8.45;;;19.90;99.90;;;;;;5070675;28;20044;-65
2022/05/19 08:45:11;;;;;;;12.55;9.10;;;20.00;99.90;;;;;;5052016;28;20045;-65
2022/05/19 08:47:37;;;;;;;20.10;8.05;;;20.00;99.90;;;;;;5070412;28;20049;-65
2022/05/19 08:50:05;;;;;;;12.13;8.60;;;20.10;99.90;;;;;;5052419;28;20048;-65
2022/05/19 08:52:39;;;;;;;12.70;9.48;;;20.20;99.90;;;;;;5052323;28;20127;-65
2022/05/19 08:55:06;;;;;;;12.63;9.00;;;20.20;99.90;;;;;;5051851;28;20056;-64
2022/05/19 08:58:07;;;;;;;11.63;9.27;;;20.30;99.90;;;;;;5070395;28;20048;-65
2022/05/19 09:00:44;;;;;;;14.20;8.85;;;20.50;99.90;;;;;;5035428;28;20408;-65
2022/05/19 09:03:19;;;;;;;12.65;8.07;;;20.70;99.90;;;;;;5069900;28;20086;-65
2022/05/19 09:06:33;;;;;;;11.77;7.82;;;20.90;99.90;;;;;;5070081;28;20043;-65
2022/05/19 09:09:07;;;;;;;21.17;11.45;;;21.00;99.90;;;;;;4972116;28;20054;-65
2022/05/19 09:11:40;;;;;;;19.20;13.07;;;21.00;99.90;;;;;;4988474;28;20061;-65
2022/05/19 09:14:22;;;;;;;14.82;10.80;;;20.60;99.90;;;;;;4988281;28;20058;-65
2022/05/19 09:16:49;;;;;;;11.15;8.75;;;20.10;99.90;;;;;;4988527;28;20141;-65
2022/05/19 09:19:35;;;;;;;7.68;6.70;;;19.80;99.90;;;;;;4982425;28;20055;-64
2022/05/19 09:22:10;;;;;;;9.38;6.22;;;19.50;99.90;;;;;;4952667;28;20039;-64
2022/05/19 09:24:36;;;;;;;9.45;7.60;;;19.20;99.90;;;;;;4968876;28;20039;-65
2022/05/19 09:27:03;;;;;;;10.70;8.43;;;19.10;99.90;;;;;;4968581;28;20082;-64
2022/05/19 09:29:41;;;;;;;13.07;9.82;;;19.10;99.90;;;;;;4953470;28;20058;-64
2022/05/19 09:32:14;;;;;;;11.13;8.95;;;19.20;99.90;;;;;;4956248;28;20051;-65
2022/05/19 09:34:43;;;;;;;13.93;9.13;;;19.10;99.90;;;;;;4972334;28;20050;-64
2022/05/19 09:37:14;;;;;;;10.90;9.38;;;19.40;99.90;;;;;;4940141;28;20139;-64
2022/05/19 09:39:48;;;;;;;9.02;8.10;;;19.50;99.90;;;;;;5010584;28;20060;-64
2022/05/19 09:42:20;;;;;;;10.30;7.63;;;19.50;99.90;;;;;;5053174;28;20047;-64
2022/05/19 09:44:54;;;;;;;12.05;9.38;;;19.40;99.90;;;;;;5035328;28;20426;-65
2022/05/19 09:47:33;;;;;;;13.02;10.45;;;19.40;99.90;;;;;;5053038;28;20495;-64
2022/05/19 09:50:14;;;;;;;12.23;10.30;;;19.50;99.90;;;;;;5035164;28;20045;-64
2022/05/19 09:52:42;;;;;;;10.13;9.13;;;19.70;99.90;;;;;;5065803;28;20052;-64
2022/05/19 09:55:09;;;;;;;9.90;7.60;;;19.70;99.90;;;;;;5072993;28;20049;-65
2022/05/19 09:57:57;;;;;;;9.18;7.72;;;19.80;99.90;;;;;;5052922;28;20056;-64
2022/05/19 10:00:30;;;;;;;13.80;9.68;;;19.90;99.90;;;;;;5035131;28;20123;-65
2022/05/19 10:02:59;;;;;;;14.40;11.35;;;19.80;99.90;;;;;;5035208;28;20159;-65
2022/05/19 10:05:36;;;;;;;15.43;10.45;;;19.80;99.90;;;;;;5052709;28;20072;-65
2022/05/19 10:08:07;;;;;;;14.75;10.57;;;19.70;99.90;;;;;;5053424;28;20404;-65
2022/05/19 10:10:45;;;;;;;11.70;9.48;;;19.70;99.90;;;;;;5052733;28;20498;-65
2022/05/19 10:13:14;;;;;;;13.13;9.57;;;19.70;99.90;;;;;;5052879;28;20124;-65
2022/05/19 10:15:55;;;;;;;9.63;8.70;;;19.60;99.90;;;;;;5052692;28;20072;-64
2022/05/19 10:18:21;;;;;;;12.38;9.07;;;19.70;99.90;;;;;;5034420;28;20553;-64
2022/05/19 10:21:23;;;;;;;8.10;6.72;;;19.90;99.90;;;;;;5052785;28;20061;-65
2022/05/19 10:24:19;;;;;;;7.85;6.85;;;20.20;99.90;;;;;;5072786;28;20074;-65
2022/05/19 10:26:52;;;;;;;12.10;8.35;;;20.50;99.90;;;;;;5072488;28;20033;-63
2022/05/19 10:33:12;;;;;;;9.48;8.20;;;21.20;99.90;;;;;;5072327;28;20060;-64
2022/05/19 10:35:59;;;;;;;8.57;7.78;;;21.40;99.90;;;;;;4992984;28;20073;-63
2022/05/19 10:38:28;;;;;;;12.52;8.40;;;21.20;99.90;;;;;;5010012;28;20038;-64
2022/05/19 10:41:17;;;;;;;8.75;7.72;;;21.30;99.90;;;;;;5009899;28;20046;-65
2022/05/19 10:43:55;;;;;;;9.07;7.00;;;21.20;99.90;;;;;;5010062;28;20033;-65
2022/05/19 10:46:23;;;;;;;8.98;7.45;;;21.40;99.90;;;;;;4993390;28;20049;-64
2022/05/19 10:48:58;;;;;;;8.73;6.82;;;21.80;99.90;;;;;;5010052;28;20053;-65
2022/05/19 10:51:34;;;;;;;9.52;6.18;;;22.20;99.90;;;;;;5009795;28;20069;-64
2022/05/19 10:54:18;;;;;;;11.00;8.15;;;22.50;99.90;;;;;;5010075;28;20517;-63
2022/05/19 10:57:20;;;;;;;8.95;7.07;;;22.50;99.90;;;;;;5009815;28;20568;-65
2022/05/19 10:59:55;;;;;;;;;;;22.50;99.90;;;;;;4993722;28;20061;-64
2022/05/19 11:02:45;;;;;;;8.82;6.03;;;22.80;99.90;;;;;;5009946;28;20328;-65
2022/05/19 11:05:31;;;;;;;7.07;5.32;;;22.80;99.90;;;;;;5009924;28;20046;-65
2022/05/19 11:08:28;;;;;;;5.00;4.50;;;22.80;99.90;;;;;;5009925;28;20052;-66
2022/05/19 11:11:29;;;;;;;4.90;3.80;;;22.90;99.90;;;;;;5009862;28;20038;-65
2022/05/19 11:14:12;;;;;;;4.38;3.80;;;23.10;99.90;;;;;;5071573;28;20081;-64
2022/05/19 11:16:59;;;;;;;4.05;3.65;;;23.20;99.90;;;;;;5071221;28;20509;-65
2022/05/19 11:19:34;;;;;;;4.13;3.15;;;23.00;99.90;;;;;;5053623;28;20052;-64
2022/05/19 11:22:12;;;;;;;4.07;3.38;;;23.10;99.90;;;;;;5071333;28;20111;-65
2022/05/19 11:28:02;;;;;;;4.40;3.28;;;23.40;99.90;;;;;;5051173;28;20499;-66
2022/05/19 11:30:41;;;;;;;4.75;3.03;;;23.50;99.90;;;;;;5071426;28;20485;-65
2022/05/19 11:33:14;;;;;;;3.83;2.67;;;23.80;99.90;;;;;;5071419;28;20056;-64
2022/05/19 11:36:03;;;;;;;4.30;2.40;;;24.00;99.90;;;;;;5053367;28;20564;-65
2022/05/19 11:38:41;;;;;;;2.22;1.70;;;24.10;99.90;;;;;;5053171;28;20052;-64
2022/05/19 11:41:26;;;;;;;3.22;1.95;;;24.10;99.90;;;;;;5071392;28;20037;-65
2022/05/19 11:44:03;;;;;;;2.63;1.50;;;24.10;99.90;;;;;;5036466;28;20182;-64
2022/05/19 11:46:52;;;;;;;2.78;2.20;;;24.00;99.90;;;;;;5071060;28;20047;-65
2022/05/19 11:55:21;;;;;;;2.20;2.00;;;23.90;99.90;;;;;;5091262;28;20040;-64
2022/05/19 11:58:09;;;;;;;2.58;2.20;;;23.80;99.90;;;;;;5090935;28;20087;-64
2022/05/19 12:00:47;;;;;;;4.18;2.67;;;23.70;99.90;;;;;;5091184;28;20055;-64
2022/05/19 12:03:19;;;;;;;4.93;2.70;;;23.70;99.90;;;;;;5073184;28;20495;-64
2022/05/19 12:05:59;;;;;;;4.85;3.03;;;23.70;99.90;;;;;;5090738;28;20039;-64
2022/05/19 12:08:41;;;;;;;5.95;3.60;;;23.60;99.90;;;;;;5091012;28;20040;-64
2022/05/19 12:11:30;;;;;;;3.10;2.80;;;23.50;99.90;;;;;;5072961;28;20044;-64
2022/05/19 12:14:08;;;;;;;5.88;3.60;;;23.40;99.90;;;;;;5090695;28;20086;-64
2022/05/19 12:16:52;;;;;;;5.18;3.00;;;23.20;99.90;;;;;;5072747;28;20052;-65
2022/05/19 12:19:38;;;;;;;5.30;3.47;;;23.10;99.90;;;;;;5084284;28;20147;-64
2022/05/19 12:22:48;;;;;;;4.53;3.72;;;22.90;99.90;;;;;;5070541;28;20040;-64
2022/05/19 12:25:16;;;;;;;5.40;4.30;;;22.80;99.90;;;;;;4969595;28;20595;-64
2022/05/19 12:27:56;;;;;;;4.47;4.00;;;22.60;99.90;;;;;;4961778;28;20138;-63
2022/05/19 12:33:57;;;;;;;4.60;3.92;;;22.40;99.90;;;;;;4969590;28;20050;-64
2022/05/19 12:36:51;;;;;;;5.25;4.38;;;22.30;99.90;;;;;;4969676;28;20045;-63
2022/05/19 12:39:17;;;;;;;5.50;4.20;;;22.30;99.90;;;;;;4969313;28;20047;-64
2022/05/19 12:41:48;;;;;;;5.35;4.18;;;22.20;99.90;;;;;;4937526;28;20383;-64
2022/05/19 12:44:40;;;;;;;6.43;4.30;;;22.10;99.90;;;;;;4969405;28;20498;-65
2022/05/19 12:47:12;;;;;;;6.25;4.97;;;21.90;99.90;;;;;;4953116;28;20071;-63
2022/05/19 12:49:39;;;;;;;6.07;5.00;;;21.80;99.90;;;;;;4969622;28;20147;-64
2022/05/19 12:52:25;;;;;;;6.50;5.32;;;21.70;99.90;;;;;;4969214;28;20082;-65
2022/05/19 12:55:24;;;;;;;10.30;5.18;;;21.60;99.90;;;;;;4961059;28;20056;-65
2022/05/19 12:57:55;;;;;;;8.68;5.38;;;21.40;99.90;;;;;;4950102;28;20047;-65
2022/05/19 13:00:32;;;;;;;8.70;5.72;;;21.10;99.90;;;;;;5050277;28;20037;-65
2022/05/19 13:03:03;;;;;;;6.97;5.25;;;20.90;99.90;;;;;;5032109;28;20040;-64
2022/05/19 13:05:53;;;;;;;9.20;6.05;;;20.70;99.90;;;;;;5054168;28;20044;-64
2022/05/19 13:08:31;;;;;;;8.25;6.30;;;20.20;99.90;;;;;;5054121;28;20037;-63
2022/05/19 13:11:00;;;;;;;8.18;5.72;;;19.80;99.90;;;;;;5053806;28;20517;-64
2022/05/19 13:13:32;;;;;;;8.52;6.13;;;19.40;99.90;;;;;;5035996;28;20041;-64
2022/05/19 13:16:02;;;;;;;8.07;6.25;;;19.10;99.90;;;;;;5053919;28;20040;-64
2022/05/19 13:18:34;;;;;;;10.18;6.63;;;18.80;99.90;;;;;;5036047;28;20136;-64
2022/05/19 13:21:24;;;;;;;9.75;5.95;;;18.70;99.90;;;;;;5053539;28;20198;-64